Time,TemperatureF,DewpointF,PressureIn,WindDirection,WindDirectionDegrees,WindSpeedMPH,WindSpeedGustMPH,Humidity,HourlyPrecipIn,Conditions,Clouds,dailyrainin,SoftwareType,DateUTC
2013-05-25 00:00:00,43.2,36.8,30.36,NNW,338,4.3,4.3,78,0.00,,CLR,0.00,VWS V14.01,2013-05-25 04:00:00,
2013-05-25 00:01:00,43.2,37.1,30.36,NNW,338,4.3,4.3,79,0.00,,CLR,0.00,VWS V14.01,2013-05-25 04:01:00,
2013-05-25 00:02:00,43.2,37.1,30.36,NNW,338,4.3,4.3,79,0.00,,CLR,0.00,VWS V14.01,2013-05-25 04:02:00,
2013-05-25 00:03:00,43.2,36.8,30.36,NNW,338,4.3,4.3,78,0.00,,CLR,0.00,VWS V14.01,2013-05-25 04:03:00,
2013-05-25 00:05:00,43.2,36.8,30.36,NNW,338,4.3,4.3,78,0.00,,CLR,0.00,VWS V14.01,2013-05-25 04:05:00,
2013-05-25 00:06:00,43.2,36.8,30.36,NNW,338,4.3,4.3,78,0.00,,CLR,0.00,VWS V14.01,2013-05-25 04:06:00,
2013-05-25 00:11:00,42.6,36.6,30.36,NNW,338,4.3,4.3,79,0.00,,CLR,0.00,VWS V14.01,2013-05-25 04:11:00,
2013-05-25 00:16:00,42.1,35.7,30.36,NNW,338,4.3,4.3,78,0.00,,CLR,0.00,VWS V14.01,2013-05-25 04:16:00,
2013-05-25 00:21:00,41.5,35.2,30.36,NNW,338,4.3,4.3,78,0.00,,CLR,0.00,VWS V14.01,2013-05-25 04:21:00,
2013-05-25 00:26:00,41.2,34.8,30.36,NNW,338,4.3,4.3,78,0.00,,CLR,0.00,VWS V14.01,2013-05-25 04:26:00,
2013-05-25 00:31:00,41.2,34.8,30.36,NNW,338,4.3,4.3,78,0.00,,CLR,0.00,VWS V14.01,2013-05-25 04:31:00,
2013-05-25 00:36:00,41.2,35.5,30.39,NNW,338,4.3,4.3,80,0.00,,CLR,0.00,VWS V14.01,2013-05-25 04:36:00,
2013-05-25 00:42:00,41.2,35.5,30.39,NNW,338,4.3,4.3,80,0.00,,CLR,0.00,VWS V14.01,2013-05-25 04:42:00,
2013-05-25 00:47:00,41.5,36.8,30.39,NNW,338,4.3,4.3,83,0.00,,CLR,0.00,VWS V14.01,2013-05-25 04:47:00,
2013-05-25 00:52:00,41.5,37.1,30.39,NNW,338,4.3,4.3,84,0.00,,CLR,0.00,VWS V14.01,2013-05-25 04:52:00,
2013-05-25 00:57:00,41.2,36.7,30.39,NNW,338,4.3,4.3,84,0.00,,CLR,0.00,VWS V14.01,2013-05-25 04:57:00,
2013-05-25 01:00:00,41.0,35.9,30.39,NNW,338,4.3,4.3,82,0.00,,CLR,0.00,VWS V14.01,2013-05-25 05:00:00,
2013-05-25 01:02:00,41.0,36.2,30.39,NNW,338,4.3,4.3,83,0.00,,CLR,0.00,VWS V14.01,2013-05-25 05:02:00,
2013-05-25 01:07:00,40.8,35.8,30.39,NNW,338,4.3,4.3,82,0.00,,CLR,0.00,VWS V14.01,2013-05-25 05:07:00,
2013-05-25 01:12:00,40.6,35.6,30.39,NNW,338,4.3,4.3,82,0.00,,CLR,0.00,VWS V14.01,2013-05-25 05:12:00,
2013-05-25 01:17:00,40.6,35.6,30.36,NNW,338,4.3,4.3,82,0.00,,CLR,0.00,VWS V14.01,2013-05-25 05:17:00,
2013-05-25 01:22:00,40.5,35.4,30.36,NNW,338,4.3,4.3,82,0.00,,CLR,0.00,VWS V14.01,2013-05-25 05:22:00,
2013-05-25 01:27:00,40.3,34.9,30.36,NNW,338,4.3,4.3,81,0.00,,CLR,0.00,VWS V14.01,2013-05-25 05:27:00,
2013-05-25 01:32:00,39.9,34.6,30.39,NNW,338,4.3,4.3,81,0.00,,CLR,0.00,VWS V14.01,2013-05-25 05:32:00,
2013-05-25 01:37:00,39.9,34.6,30.39,NNW,338,4.3,4.3,81,0.00,,CLR,0.00,VWS V14.01,2013-05-25 05:37:00,
2013-05-25 01:42:00,39.6,33.9,30.39,NNW,338,4.3,4.3,80,0.00,,CLR,0.00,VWS V14.01,2013-05-25 05:42:00,
2013-05-25 01:47:00,39.6,34.2,30.39,NNW,338,4.3,4.3,81,0.00,,CLR,0.00,VWS V14.01,2013-05-25 05:47:00,
2013-05-25 01:52:00,39.4,34.3,30.39,NNW,338,4.3,4.3,82,0.00,,CLR,0.00,VWS V14.01,2013-05-25 05:52:00,
2013-05-25 01:57:00,39.4,34.3,30.39,NNW,338,4.3,4.3,82,0.00,,CLR,0.00,VWS V14.01,2013-05-25 05:57:00,
2013-05-25 02:00:00,39.0,33.7,30.41,NNW,338,4.3,4.3,81,0.00,,CLR,0.00,VWS V14.01,2013-05-25 06:00:00,
2013-05-25 02:02:00,39.2,33.9,30.41,NNW,338,4.3,4.3,81,0.00,,CLR,0.00,VWS V14.01,2013-05-25 06:02:00,
2013-05-25 02:07:00,39.0,33.7,30.41,NNW,338,4.3,4.3,81,0.00,,CLR,0.00,VWS V14.01,2013-05-25 06:07:00,
2013-05-25 02:12:00,39.2,34.5,30.41,NNW,338,4.3,4.3,83,0.00,,CLR,0.00,VWS V14.01,2013-05-25 06:12:00,
2013-05-25 02:17:00,38.8,34.1,30.39,NNW,338,4.3,4.3,83,0.00,,CLR,0.00,VWS V14.01,2013-05-25 06:17:00,
2013-05-25 02:22:00,38.5,33.8,30.39,NNW,338,4.3,4.3,83,0.00,,CLR,0.00,VWS V14.01,2013-05-25 06:22:00,
2013-05-25 02:27:00,38.5,33.8,30.39,NNW,338,4.3,4.3,83,0.00,,CLR,0.00,VWS V14.01,2013-05-25 06:27:00,
2013-05-25 02:32:00,38.8,35.3,30.39,NNW,338,4.3,4.3,87,0.00,,CLR,0.00,VWS V14.01,2013-05-25 06:32:00,
2013-05-25 02:37:00,38.7,34.8,30.39,NNW,338,4.3,4.3,86,0.00,,CLR,0.00,VWS V14.01,2013-05-25 06:37:00,
2013-05-25 02:42:00,38.8,34.7,30.39,NNW,338,4.3,4.3,85,0.00,,CLR,0.00,VWS V14.01,2013-05-25 06:42:00,
2013-05-25 02:47:00,38.5,34.1,30.39,NNW,338,4.3,4.3,84,0.00,,CLR,0.00,VWS V14.01,2013-05-25 06:47:00,
2013-05-25 02:52:00,38.5,34.1,30.39,NNW,338,4.3,4.3,84,0.00,,CLR,0.00,VWS V14.01,2013-05-25 06:52:00,
2013-05-25 02:57:00,38.5,34.1,30.39,NNW,338,4.3,4.3,84,0.00,,CLR,0.00,VWS V14.01,2013-05-25 06:57:00,
2013-05-25 03:00:00,38.7,34.8,30.39,NNW,338,4.3,4.3,86,0.00,,CLR,0.00,VWS V14.01,2013-05-25 07:00:00,
2013-05-25 03:02:00,38.5,34.4,30.39,NNW,338,4.3,4.3,85,0.00,,CLR,0.00,VWS V14.01,2013-05-25 07:02:00,
2013-05-25 03:07:00,38.8,35.3,30.39,NNW,338,4.3,4.3,87,0.00,,CLR,0.00,VWS V14.01,2013-05-25 07:07:00,
2013-05-25 03:12:00,38.7,35.1,30.39,NNW,338,4.3,4.3,87,0.00,,CLR,0.00,VWS V14.01,2013-05-25 07:12:00,
2013-05-25 03:17:00,38.5,35.0,30.39,NNW,338,4.3,4.3,87,0.00,,CLR,0.00,VWS V14.01,2013-05-25 07:17:00,
2013-05-25 03:22:00,38.1,34.3,30.39,NNW,338,4.3,4.3,86,0.00,,CLR,0.00,VWS V14.01,2013-05-25 07:22:00,
2013-05-25 03:27:00,37.8,34.0,30.39,NNW,338,4.3,4.3,86,0.00,,CLR,0.00,VWS V14.01,2013-05-25 07:27:00,
2013-05-25 03:32:00,37.6,33.8,30.39,NNW,338,4.3,4.3,86,0.00,,CLR,0.00,VWS V14.01,2013-05-25 07:32:00,
2013-05-25 03:37:00,37.8,34.0,30.39,NNW,338,4.3,4.3,86,0.00,,CLR,0.00,VWS V14.01,2013-05-25 07:37:00,
2013-05-25 03:42:00,37.6,33.8,30.39,NNW,338,4.3,4.3,86,0.00,,CLR,0.00,VWS V14.01,2013-05-25 07:42:00,
2013-05-25 03:47:00,37.0,33.2,30.39,NNW,338,4.3,4.3,86,0.00,,CLR,0.00,VWS V14.01,2013-05-25 07:47:00,
2013-05-25 03:52:00,36.9,33.1,30.39,NNW,338,4.3,4.3,86,0.00,,CLR,0.00,VWS V14.01,2013-05-25 07:52:00,
2013-05-25 03:57:00,36.7,32.9,30.39,NNW,338,4.3,4.3,86,0.00,,CLR,0.00,VWS V14.01,2013-05-25 07:57:00,
2013-05-25 04:00:00,36.9,33.4,30.39,NNW,338,4.3,4.3,87,0.00,,CLR,0.00,VWS V14.01,2013-05-25 08:00:00,
2013-05-25 04:02:00,36.9,33.4,30.39,NNW,338,4.3,4.3,87,0.00,,CLR,0.00,VWS V14.01,2013-05-25 08:02:00,
2013-05-25 04:07:00,36.7,33.2,30.39,NNW,338,4.3,4.3,87,0.00,,CLR,0.00,VWS V14.01,2013-05-25 08:07:00,
2013-05-25 04:12:00,36.9,33.7,30.39,NNW,338,4.3,4.3,88,0.00,,CLR,0.00,VWS V14.01,2013-05-25 08:12:00,
2013-05-25 04:17:00,36.3,32.8,30.39,NNW,338,4.3,4.3,87,0.00,,CLR,0.00,VWS V14.01,2013-05-25 08:17:00,
2013-05-25 04:22:00,36.1,32.7,30.39,NNW,338,4.3,4.3,87,0.00,,CLR,0.00,VWS V14.01,2013-05-25 08:22:00,
2013-05-25 04:27:00,35.8,32.3,30.39,NNW,338,4.3,4.3,87,0.00,,CLR,0.00,VWS V14.01,2013-05-25 08:27:00,
2013-05-25 04:32:00,35.6,32.1,30.39,NNW,338,4.3,4.3,87,0.00,,CLR,0.00,VWS V14.01,2013-05-25 08:32:00,
2013-05-25 04:37:00,35.6,32.1,30.39,NNW,338,4.3,4.3,87,0.00,,CLR,0.00,VWS V14.01,2013-05-25 08:37:00,
2013-05-25 04:43:00,35.8,32.6,30.39,NNW,338,4.3,4.3,88,0.00,,CLR,0.00,VWS V14.01,2013-05-25 08:43:00,
2013-05-25 04:48:00,36.0,32.8,30.39,NNW,338,4.3,4.3,88,0.00,,CLR,0.00,VWS V14.01,2013-05-25 08:48:00,
2013-05-25 04:53:00,36.5,33.6,30.39,NNW,338,4.3,4.3,89,0.00,,CLR,0.00,VWS V14.01,2013-05-25 08:53:00,
2013-05-25 04:58:00,36.7,33.8,30.39,NNW,338,4.3,4.3,89,0.00,,CLR,0.00,VWS V14.01,2013-05-25 08:58:00,
2013-05-25 05:03:00,36.7,33.8,30.36,NNW,338,4.3,4.3,89,0.00,,CLR,0.00,VWS V14.01,2013-05-25 09:03:00,
2013-05-25 05:08:00,36.9,33.9,30.36,NNW,338,4.3,4.3,89,0.00,,CLR,0.00,VWS V14.01,2013-05-25 09:08:00,
2013-05-25 05:13:00,36.7,33.8,30.36,NNW,338,4.3,4.3,89,0.00,,CLR,0.00,VWS V14.01,2013-05-25 09:13:00,
2013-05-25 05:18:00,36.5,33.6,30.39,NNW,338,4.3,4.3,89,0.00,,CLR,0.00,VWS V14.01,2013-05-25 09:18:00,
2013-05-25 05:23:00,36.7,33.8,30.39,NNW,338,4.3,4.3,89,0.00,,CLR,0.00,VWS V14.01,2013-05-25 09:23:00,
2013-05-25 05:28:00,36.5,33.6,30.39,NNW,338,4.3,4.3,89,0.00,,CLR,0.00,VWS V14.01,2013-05-25 09:28:00,
2013-05-25 05:33:00,36.1,33.2,30.36,NNW,338,4.3,4.3,89,0.00,,CLR,0.00,VWS V14.01,2013-05-25 09:33:00,
2013-05-25 05:38:00,35.4,32.2,30.36,NNW,338,4.3,4.3,88,0.00,,CLR,0.00,VWS V14.01,2013-05-25 09:38:00,
2013-05-25 05:43:00,35.1,31.6,30.36,NNW,338,4.3,4.3,87,0.00,,CLR,0.00,VWS V14.01,2013-05-25 09:43:00,
2013-05-25 05:48:00,35.2,32.0,30.39,NNW,338,4.3,4.3,88,0.00,,CLR,0.00,VWS V14.01,2013-05-25 09:48:00,
2013-05-25 05:53:00,35.6,32.7,30.39,NNW,338,4.3,4.3,89,0.00,,CLR,0.00,VWS V14.01,2013-05-25 09:53:00,
2013-05-25 05:58:00,36.0,33.3,30.39,NNW,338,4.3,4.3,90,0.00,,CLR,0.00,VWS V14.01,2013-05-25 09:58:00,
2013-05-25 06:00:00,36.1,33.8,30.41,NNW,338,4.3,4.3,91,0.00,,CLR,0.00,VWS V14.01,2013-05-25 10:00:00,
2013-05-25 06:03:00,36.1,33.8,30.41,NNW,338,4.3,4.3,91,0.00,,CLR,0.00,VWS V14.01,2013-05-25 10:03:00,
2013-05-25 06:08:00,36.1,33.8,30.41,NNW,338,4.3,4.3,91,0.00,,CLR,0.00,VWS V14.01,2013-05-25 10:08:00,
2013-05-25 06:13:00,36.3,34.0,30.41,NNW,338,4.3,4.3,91,0.00,,CLR,0.00,VWS V14.01,2013-05-25 10:13:00,
2013-05-25 06:18:00,36.7,34.6,30.41,NNW,338,4.3,4.3,92,0.00,,CLR,0.00,VWS V14.01,2013-05-25 10:18:00,
2013-05-25 06:23:00,37.2,35.1,30.44,NNW,338,4.3,4.3,92,0.00,,CLR,0.00,VWS V14.01,2013-05-25 10:23:00,
2013-05-25 06:28:00,37.6,35.5,30.44,NNW,338,4.3,4.3,92,0.00,,CLR,0.00,VWS V14.01,2013-05-25 10:28:00,
2013-05-25 06:33:00,38.5,36.6,30.44,NNW,338,4.3,4.3,93,0.00,,CLR,0.00,VWS V14.01,2013-05-25 10:33:00,
2013-05-25 06:38:00,39.2,37.3,30.44,NNW,338,4.3,4.3,93,0.00,,CLR,0.00,VWS V14.01,2013-05-25 10:38:00,
2013-05-25 06:43:00,39.9,38.3,30.44,NNW,338,4.3,4.3,94,0.00,,CLR,0.00,VWS V14.01,2013-05-25 10:43:00,
2013-05-25 06:48:00,40.6,39.3,30.44,NNW,338,4.3,4.3,95,0.00,,CLR,0.00,VWS V14.01,2013-05-25 10:48:00,
2013-05-25 06:53:00,41.2,39.6,30.44,NNW,338,4.3,4.3,94,0.00,,CLR,0.00,VWS V14.01,2013-05-25 10:53:00,
2013-05-25 06:58:00,41.4,39.5,30.44,NNW,338,4.3,4.3,93,0.00,,CLR,0.00,VWS V14.01,2013-05-25 10:58:00,
2013-05-25 07:00:00,41.9,39.5,30.44,NNW,338,4.3,4.3,91,0.00,,CLR,0.00,VWS V14.01,2013-05-25 11:00:00,
2013-05-25 07:03:00,41.9,39.5,30.44,NNW,338,4.3,4.3,91,0.00,,CLR,0.00,VWS V14.01,2013-05-25 11:03:00,
2013-05-25 07:08:00,43.3,40.0,30.44,NNW,338,4.3,4.3,88,0.00,,CLR,0.00,VWS V14.01,2013-05-25 11:08:00,
2013-05-25 07:13:00,44.6,40.7,30.44,NNW,338,4.3,4.3,86,0.00,,CLR,0.00,VWS V14.01,2013-05-25 11:13:00,
2013-05-25 07:18:00,45.3,40.5,30.44,NNW,338,4.3,4.3,83,0.00,,CLR,0.00,VWS V14.01,2013-05-25 11:18:00,
2013-05-25 07:23:00,46.0,38.2,30.44,NNW,338,4.3,4.3,74,0.00,,CLR,0.00,VWS V14.01,2013-05-25 11:23:00,
2013-05-25 07:28:00,46.4,36.4,30.44,NNW,338,4.3,4.3,68,0.00,,CLR,0.00,VWS V14.01,2013-05-25 11:28:00,
2013-05-25 07:33:00,47.3,37.7,30.44,NNW,338,4.3,4.3,69,0.00,,CLR,0.00,VWS V14.01,2013-05-25 11:33:00,
2013-05-25 07:38:00,47.8,37.0,30.44,NNW,338,4.3,4.3,66,0.00,,CLR,0.00,VWS V14.01,2013-05-25 11:38:00,
2013-05-25 07:43:00,48.6,37.3,30.44,NNW,338,4.3,4.3,65,0.00,,CLR,0.00,VWS V14.01,2013-05-25 11:43:00,
2013-05-25 07:48:00,49.5,38.2,30.44,NNW,338,4.3,4.3,65,0.00,,CLR,0.00,VWS V14.01,2013-05-25 11:48:00,
2013-05-25 07:53:00,50.5,38.0,30.44,NNW,338,4.3,4.3,62,0.00,,CLR,0.00,VWS V14.01,2013-05-25 11:53:00,
2013-05-25 07:58:00,51.3,37.4,30.44,NNW,338,4.3,4.3,59,0.00,,CLR,0.00,VWS V14.01,2013-05-25 11:58:00,
2013-05-25 08:00:00,51.8,37.5,30.41,NNW,338,4.3,4.3,58,0.00,,CLR,0.00,VWS V14.01,2013-05-25 12:00:00,
2013-05-25 08:03:00,51.8,37.5,30.41,NNW,338,4.3,4.3,58,0.00,,CLR,0.00,VWS V14.01,2013-05-25 12:03:00,
2013-05-25 08:08:00,52.9,38.1,30.41,NNW,338,4.3,4.3,57,0.00,,CLR,0.00,VWS V14.01,2013-05-25 12:08:00,
2013-05-25 08:13:00,53.1,35.4,30.41,NNW,338,4.3,4.3,51,0.00,,CLR,0.00,VWS V14.01,2013-05-25 12:13:00,
2013-05-25 08:18:00,53.2,35.1,30.44,NNW,338,4.3,4.3,50,0.00,,CLR,0.00,VWS V14.01,2013-05-25 12:18:00,
2013-05-25 08:23:00,54.0,35.2,30.44,NNW,338,4.3,4.3,49,0.00,,CLR,0.00,VWS V14.01,2013-05-25 12:23:00,
2013-05-25 08:28:00,54.9,36.6,30.44,NNW,338,4.3,4.3,50,0.00,,CLR,0.00,VWS V14.01,2013-05-25 12:28:00,
2013-05-25 08:33:00,54.9,35.6,30.44,NNW,338,4.3,4.3,48,0.00,,CLR,0.00,VWS V14.01,2013-05-25 12:33:00,
2013-05-25 08:38:00,55.9,35.5,30.44,NNW,338,4.3,4.3,46,0.00,,CLR,0.00,VWS V14.01,2013-05-25 12:38:00,
2013-05-25 08:43:00,56.3,34.7,30.44,NNW,338,4.3,4.3,44,0.00,,CLR,0.00,VWS V14.01,2013-05-25 12:43:00,
2013-05-25 08:48:00,56.8,35.7,30.44,NNW,338,4.3,4.3,45,0.00,,CLR,0.00,VWS V14.01,2013-05-25 12:48:00,
2013-05-25 08:54:00,57.0,35.3,30.44,NNW,338,4.3,4.3,44,0.00,,CLR,0.00,VWS V14.01,2013-05-25 12:54:00,
2013-05-25 08:59:00,58.1,35.2,30.44,NNW,338,4.3,4.3,42,0.00,,CLR,0.00,VWS V14.01,2013-05-25 12:59:00,
2013-05-25 09:00:00,58.1,35.2,30.47,NNW,338,4.3,4.3,42,0.00,,CLR,0.00,VWS V14.01,2013-05-25 13:00:00,
2013-05-25 09:04:00,58.1,35.2,30.47,NNW,338,4.3,4.3,42,0.00,,CLR,0.00,VWS V14.01,2013-05-25 13:04:00,
2013-05-25 09:09:00,58.8,33.9,30.47,NNW,338,4.3,4.3,39,0.00,,CLR,0.00,VWS V14.01,2013-05-25 13:09:00,
2013-05-25 09:14:00,59.2,34.3,30.47,NNW,338,4.3,4.3,39,0.00,,CLR,0.00,VWS V14.01,2013-05-25 13:14:00,
2013-05-25 09:19:00,59.5,33.3,30.44,NNW,338,4.3,4.3,37,0.00,,CLR,0.00,VWS V14.01,2013-05-25 13:19:00,
2013-05-25 09:24:00,59.4,32.4,30.44,NNW,338,4.3,4.3,36,0.00,,CLR,0.00,VWS V14.01,2013-05-25 13:24:00,
2013-05-25 09:29:00,59.2,32.3,30.44,NNW,338,4.3,4.3,36,0.00,,CLR,0.00,VWS V14.01,2013-05-25 13:29:00,
2013-05-25 09:34:00,60.6,34.2,30.44,NNW,338,4.3,4.3,37,0.00,,CLR,0.00,VWS V14.01,2013-05-25 13:34:00,
2013-05-25 09:39:00,61.0,32.4,30.44,NNW,338,4.3,4.3,34,0.00,,CLR,0.00,VWS V14.01,2013-05-25 13:39:00,
2013-05-25 09:44:00,61.3,32.8,30.44,NNW,338,4.3,4.3,34,0.00,,CLR,0.00,VWS V14.01,2013-05-25 13:44:00,
2013-05-25 09:49:00,62.1,33.4,30.47,SSE,158,1.6,4.3,34,0.00,,CLR,0.00,VWS V14.01,2013-05-25 13:49:00,
2013-05-25 09:54:00,61.7,33.1,30.47,NNE,22,3.1,4.3,34,0.00,,CLR,0.00,VWS V14.01,2013-05-25 13:54:00,
2013-05-25 09:59:00,63.1,34.3,30.47,NE,45,3.6,4.3,34,0.00,,CLR,0.00,VWS V14.01,2013-05-25 13:59:00,
2013-05-25 10:00:00,62.2,31.2,30.47,NNE,22,2.5,4.3,31,0.00,,CLR,0.00,VWS V14.01,2013-05-25 14:00:00,
2013-05-25 10:04:00,62.4,32.2,30.47,NE,45,2.7,2.7,32,0.00,,CLR,0.00,VWS V14.01,2013-05-25 14:04:00,
2013-05-25 10:09:00,62.8,30.9,30.47,North,0,3.8,3.8,30,0.00,,CLR,0.00,VWS V14.01,2013-05-25 14:09:00,
2013-05-25 10:14:00,63.7,30.0,30.47,ENE,68,3.1,5.4,28,0.00,,CLR,0.00,VWS V14.01,2013-05-25 14:14:00,
2013-05-25 10:19:00,63.1,28.6,30.47,North,0,0.0,5.4,27,0.00,,CLR,0.00,VWS V14.01,2013-05-25 14:19:00,
2013-05-25 10:24:00,63.3,28.8,30.47,East,90,2.5,5.4,27,0.00,,CLR,0.00,VWS V14.01,2013-05-25 14:24:00,
2013-05-25 10:29:00,62.8,27.4,30.47,NNW,338,1.6,5.8,26,0.00,,CLR,0.00,VWS V14.01,2013-05-25 14:29:00,
2013-05-25 10:34:00,63.9,28.3,30.44,NNE,22,2.7,5.8,26,0.00,,CLR,0.00,VWS V14.01,2013-05-25 14:34:00,
2013-05-25 10:39:00,64.2,28.6,30.44,NNW,338,2.2,5.8,26,0.00,,CLR,0.00,VWS V14.01,2013-05-25 14:39:00,
2013-05-25 10:44:00,63.1,27.7,30.44,NNE,22,3.1,6.0,26,0.00,,CLR,0.00,VWS V14.01,2013-05-25 14:44:00,
2013-05-25 10:49:00,62.6,29.1,30.44,NNW,338,2.0,6.7,28,0.00,,CLR,0.00,VWS V14.01,2013-05-25 14:49:00,
2013-05-25 10:54:00,63.0,29.4,30.44,ENE,68,4.7,6.7,28,0.00,,CLR,0.00,VWS V14.01,2013-05-25 14:54:00,
2013-05-25 10:59:00,62.6,28.2,30.44,ESE,112,1.1,7.8,27,0.00,,CLR,0.00,VWS V14.01,2013-05-25 14:59:00,
2013-05-25 11:00:00,64.2,31.3,30.44,NE,45,1.6,7.8,29,0.00,,CLR,0.00,VWS V14.01,2013-05-25 15:00:00,
2013-05-25 11:04:00,64.2,31.3,30.44,ENE,68,2.5,6.5,29,0.00,,CLR,0.00,VWS V14.01,2013-05-25 15:04:00,
2013-05-25 11:09:00,63.5,33.1,30.44,NNW,338,2.9,6.5,32,0.00,,CLR,0.00,VWS V14.01,2013-05-25 15:09:00,
2013-05-25 11:14:00,63.9,30.1,30.44,ENE,68,0.0,6.5,28,0.00,,CLR,0.00,VWS V14.01,2013-05-25 15:14:00,
2013-05-25 11:19:00,65.3,33.1,30.44,ENE,68,2.5,6.5,30,0.00,,CLR,0.00,VWS V14.01,2013-05-25 15:19:00,
2013-05-25 11:24:00,65.3,29.6,30.44,ENE,68,3.6,6.5,26,0.00,,CLR,0.00,VWS V14.01,2013-05-25 15:24:00,
2013-05-25 11:29:00,64.4,27.8,30.44,NNE,22,2.5,6.5,25,0.00,,CLR,0.00,VWS V14.01,2013-05-25 15:29:00,
2013-05-25 11:34:00,64.4,28.8,30.44,NNE,22,5.4,7.4,26,0.00,,CLR,0.00,VWS V14.01,2013-05-25 15:34:00,
2013-05-25 11:39:00,64.4,29.7,30.44,ESE,112,3.8,7.4,27,0.00,,CLR,0.00,VWS V14.01,2013-05-25 15:39:00,
2013-05-25 11:44:00,64.4,29.7,30.44,East,90,4.7,7.4,27,0.00,,CLR,0.00,VWS V14.01,2013-05-25 15:44:00,
2013-05-25 11:49:00,64.4,32.3,30.44,NNE,22,3.6,8.5,30,0.00,,CLR,0.00,VWS V14.01,2013-05-25 15:49:00,
2013-05-25 11:54:00,64.0,29.4,30.44,NNW,338,4.0,8.5,27,0.00,,CLR,0.00,VWS V14.01,2013-05-25 15:54:00,
2013-05-25 11:59:00,65.1,32.1,30.44,NNW,338,4.3,8.5,29,0.00,,CLR,0.00,VWS V14.01,2013-05-25 15:59:00,
2013-05-25 12:00:00,64.8,29.1,30.44,North,0,5.8,8.5,26,0.00,,CLR,0.00,VWS V14.01,2013-05-25 16:00:00,
2013-05-25 12:04:00,64.2,29.6,30.44,NNW,338,3.8,5.8,27,0.00,,CLR,0.00,VWS V14.01,2013-05-25 16:04:00,
2013-05-25 12:09:00,64.8,30.9,30.44,ESE,112,1.6,6.3,28,0.00,,CLR,0.00,VWS V14.01,2013-05-25 16:09:00,
2013-05-25 12:14:00,66.6,31.6,30.44,NNE,22,1.6,6.3,27,0.00,,CLR,0.00,VWS V14.01,2013-05-25 16:14:00,
2013-05-25 12:19:00,65.5,31.5,30.44,NW,315,5.6,6.3,28,0.00,,CLR,0.00,VWS V14.01,2013-05-25 16:19:00,
2013-05-25 12:24:00,65.3,30.5,30.44,WNW,292,3.8,6.3,27,0.00,,CLR,0.00,VWS V14.01,2013-05-25 16:24:00,
2013-05-25 12:29:00,66.6,30.6,30.44,SSE,158,2.2,6.3,26,0.00,,CLR,0.00,VWS V14.01,2013-05-25 16:29:00,
2013-05-25 12:34:00,67.6,35.1,30.41,NNW,338,3.1,6.3,30,0.00,,CLR,0.00,VWS V14.01,2013-05-25 16:34:00,
2013-05-25 12:39:00,66.2,29.4,30.41,NNE,22,2.9,7.8,25,0.00,,CLR,0.00,VWS V14.01,2013-05-25 16:39:00,
2013-05-25 12:44:00,66.0,31.1,30.41,North,0,1.6,7.8,27,0.00,,CLR,0.00,VWS V14.01,2013-05-25 16:44:00,
2013-05-25 12:49:00,65.7,30.8,30.44,NNW,338,4.0,7.8,27,0.00,,CLR,0.00,VWS V14.01,2013-05-25 16:49:00,
2013-05-25 12:54:00,64.8,30.0,30.44,NNW,338,4.9,7.8,27,0.00,,CLR,0.00,VWS V14.01,2013-05-25 16:54:00,
2013-05-25 12:59:00,64.2,30.5,30.44,NNW,338,3.1,7.8,28,0.00,,CLR,0.00,VWS V14.01,2013-05-25 16:59:00,
2013-05-25 13:00:00,65.5,32.4,30.41,NNE,22,3.1,7.8,29,0.00,,CLR,0.00,VWS V14.01,2013-05-25 17:00:00,
2013-05-25 13:04:00,65.8,33.6,30.41,NNW,338,2.9,3.1,30,0.00,,CLR,0.00,VWS V14.01,2013-05-25 17:04:00,
2013-05-25 13:10:00,66.4,34.9,30.41,ENE,68,3.8,5.4,31,0.00,,CLR,0.00,VWS V14.01,2013-05-25 17:10:00,
2013-05-25 13:15:00,66.4,31.4,30.41,NNE,22,3.4,6.0,27,0.00,,CLR,0.00,VWS V14.01,2013-05-25 17:15:00,
2013-05-25 13:20:00,66.4,30.5,30.41,NNW,338,2.9,6.5,26,0.00,,CLR,0.00,VWS V14.01,2013-05-25 17:20:00,
2013-05-25 13:25:00,66.0,32.0,30.41,NW,315,1.3,6.5,28,0.00,,CLR,0.00,VWS V14.01,2013-05-25 17:25:00,
2013-05-25 13:30:00,66.2,31.3,30.41,North,0,3.8,8.5,27,0.00,,CLR,0.00,VWS V14.01,2013-05-25 17:30:00,
2013-05-25 13:35:00,64.8,31.8,30.39,NNW,338,4.0,8.5,29,0.00,,CLR,0.00,VWS V14.01,2013-05-25 17:35:00,
2013-05-25 13:40:00,66.7,34.3,30.39,West,270,2.9,8.5,30,0.00,,CLR,0.00,VWS V14.01,2013-05-25 17:40:00,
2013-05-25 13:45:00,67.3,31.2,30.39,NE,45,3.6,8.5,26,0.00,,CLR,0.00,VWS V14.01,2013-05-25 17:45:00,
2013-05-25 13:50:00,65.8,30.0,30.39,NNE,22,3.8,8.5,26,0.00,,CLR,0.00,VWS V14.01,2013-05-25 17:50:00,
2013-05-25 13:55:00,65.3,30.5,30.39,NNW,338,4.0,8.5,27,0.00,,CLR,0.00,VWS V14.01,2013-05-25 17:55:00,
2013-05-25 14:00:00,65.8,35.2,30.39,West,270,4.0,8.5,32,0.00,,CLR,0.00,VWS V14.01,2013-05-25 18:00:00,
2013-05-25 14:05:00,66.6,36.6,30.39,NE,45,7.8,8.5,33,0.00,,CLR,0.00,VWS V14.01,2013-05-25 18:05:00,
2013-05-25 14:10:00,66.7,36.0,30.39,ENE,68,6.0,9.2,32,0.00,,CLR,0.00,VWS V14.01,2013-05-25 18:10:00,
2013-05-25 14:15:00,67.6,33.4,30.39,SE,135,4.0,9.2,28,0.00,,CLR,0.00,VWS V14.01,2013-05-25 18:15:00,
2013-05-25 14:20:00,66.6,32.5,30.39,NNW,338,8.1,9.2,28,0.00,,CLR,0.00,VWS V14.01,2013-05-25 18:20:00,
2013-05-25 14:25:00,65.5,32.4,30.39,NNE,22,8.1,11.0,29,0.00,,CLR,0.00,VWS V14.01,2013-05-25 18:25:00,
2013-05-25 14:30:00,66.4,34.0,30.39,ENE,68,4.9,11.0,30,0.00,,CLR,0.00,VWS V14.01,2013-05-25 18:30:00,
2013-05-25 14:35:00,69.3,34.8,30.39,SE,135,0.9,11.0,28,0.00,,CLR,0.00,VWS V14.01,2013-05-25 18:35:00,
2013-05-25 14:40:00,70.7,38.6,30.39,NNW,338,3.1,11.0,31,0.00,,CLR,0.00,VWS V14.01,2013-05-25 18:40:00,
2013-05-25 14:45:00,66.7,31.7,30.39,NNE,22,5.4,11.0,27,0.00,,CLR,0.00,VWS V14.01,2013-05-25 18:45:00,
2013-05-25 14:50:00,66.6,32.5,30.39,NNE,22,7.2,11.0,28,0.00,,CLR,0.00,VWS V14.01,2013-05-25 18:50:00,
2013-05-25 14:55:00,66.4,31.4,30.39,NNE,22,5.6,12.8,27,0.00,,CLR,0.00,VWS V14.01,2013-05-25 18:55:00,
2013-05-25 15:00:00,68.7,35.2,30.39,WSW,248,2.5,12.8,29,0.00,,CLR,0.00,VWS V14.01,2013-05-25 19:00:00,
2013-05-25 15:05:00,68.9,31.7,30.39,East,90,3.6,6.3,25,0.00,,CLR,0.00,VWS V14.01,2013-05-25 19:05:00,
2013-05-25 15:10:00,68.2,32.0,30.39,NNE,22,4.5,9.8,26,0.00,,CLR,0.00,VWS V14.01,2013-05-25 19:10:00,
2013-05-25 15:15:00,66.9,36.1,30.39,NNW,338,6.5,9.8,32,0.00,,CLR,0.00,VWS V14.01,2013-05-25 19:15:00,
2013-05-25 15:20:00,67.1,32.9,30.41,NNW,338,1.6,9.8,28,0.00,,CLR,0.00,VWS V14.01,2013-05-25 19:20:00,
2013-05-25 15:25:00,67.5,31.4,30.41,NNE,22,7.6,9.8,26,0.00,,CLR,0.00,VWS V14.01,2013-05-25 19:25:00,
2013-05-25 15:30:00,66.9,31.0,30.41,NNE,22,9.6,9.8,26,0.00,,CLR,0.00,VWS V14.01,2013-05-25 19:30:00,
2013-05-25 15:35:00,66.4,31.4,30.36,NNE,22,7.4,9.8,27,0.00,,CLR,14.51,VWS V14.01,2013-05-25 19:35:00,
2013-05-25 15:40:00,67.8,37.7,30.36,NNE,22,3.1,9.8,33,0.00,,CLR,14.51,VWS V14.01,2013-05-25 19:40:00,
2013-05-25 15:45:00,68.9,34.5,30.36,NE,45,5.4,9.8,28,0.00,,CLR,14.51,VWS V14.01,2013-05-25 19:45:00,
2013-05-25 15:50:00,67.6,35.1,30.36,NE,45,5.4,9.8,30,0.00,,CLR,14.51,VWS V14.01,2013-05-25 19:50:00,
2013-05-25 15:55:00,67.3,33.1,30.36,NE,45,5.4,9.8,28,0.00,,CLR,14.51,VWS V14.01,2013-05-25 19:55:00,
2013-05-25 16:00:00,68.0,32.8,30.36,NNE,22,3.6,9.8,27,0.00,,CLR,14.51,VWS V14.01,2013-05-25 20:00:00,
2013-05-25 16:05:00,67.1,32.0,30.36,NNE,22,8.1,8.1,27,0.00,,CLR,14.51,VWS V14.01,2013-05-25 20:05:00,
2013-05-25 16:10:00,66.4,29.5,30.36,NNE,22,5.4,10.3,25,0.00,,CLR,14.51,VWS V14.01,2013-05-25 20:10:00,
2013-05-25 16:15:00,68.0,31.9,30.36,NE,45,3.1,10.3,26,0.00,,CLR,14.51,VWS V14.01,2013-05-25 20:15:00,
2013-05-25 16:20:00,68.0,34.6,30.36,NE,45,5.8,10.3,29,0.00,,CLR,14.51,VWS V14.01,2013-05-25 20:20:00,
2013-05-25 16:25:00,65.7,30.8,30.36,NNE,22,6.9,10.3,27,0.00,,CLR,14.51,VWS V14.01,2013-05-25 20:25:00,
2013-05-25 16:30:00,65.7,30.8,30.36,NNE,22,6.9,10.3,27,0.00,,CLR,14.51,VWS V14.01,2013-05-25 20:30:00,
2013-05-25 16:35:00,67.3,33.1,30.36,NNE,22,6.9,10.3,28,0.00,,CLR,14.51,VWS V14.01,2013-05-25 20:35:00,
2013-05-25 16:40:00,66.6,34.2,30.36,NNE,22,6.9,10.3,30,0.00,,CLR,14.51,VWS V14.01,2013-05-25 20:40:00,
2013-05-25 16:45:00,65.1,30.3,30.36,NNE,22,6.9,10.3,27,0.00,,CLR,14.51,VWS V14.01,2013-05-25 20:45:00,
2013-05-25 16:50:00,63.3,27.9,30.36,NNE,22,6.9,10.3,26,0.00,,CLR,14.51,VWS V14.01,2013-05-25 20:50:00,
2013-05-25 16:55:00,64.4,29.7,30.36,NNE,22,6.9,10.3,27,0.00,,CLR,14.51,VWS V14.01,2013-05-25 20:55:00,
2013-05-25 17:00:00,64.8,30.0,30.36,NNE,22,6.9,10.3,27,0.00,,CLR,14.51,VWS V14.01,2013-05-25 21:00:00,
2013-05-25 17:06:00,64.2,30.5,30.36,NNE,22,6.9,6.9,28,0.00,,CLR,14.51,VWS V14.01,2013-05-25 21:06:00,
2013-05-25 17:11:00,64.2,33.0,30.36,NNE,22,6.9,6.9,31,0.00,,CLR,14.51,VWS V14.01,2013-05-25 21:11:00,
2013-05-25 17:16:00,63.9,29.3,30.36,NNE,22,6.9,6.9,27,0.00,,CLR,14.51,VWS V14.01,2013-05-25 21:16:00,
2013-05-25 17:21:00,64.4,29.7,30.36,NNE,22,6.9,6.9,27,0.00,,CLR,14.51,VWS V14.01,2013-05-25 21:21:00,
2013-05-25 17:26:00,62.4,27.1,30.36,NNE,22,6.9,6.9,26,0.00,,CLR,14.51,VWS V14.01,2013-05-25 21:26:00,
2013-05-25 17:31:00,63.7,27.2,30.36,NNE,22,6.9,6.9,25,0.00,,CLR,14.51,VWS V14.01,2013-05-25 21:31:00,
2013-05-25 17:36:00,63.1,26.8,30.36,NNE,22,6.9,6.9,25,0.00,,CLR,14.51,VWS V14.01,2013-05-25 21:36:00,
2013-05-25 17:41:00,63.0,25.6,30.36,NNE,22,6.9,6.9,24,0.00,,CLR,14.51,VWS V14.01,2013-05-25 21:41:00,
2013-05-25 17:46:00,63.1,25.8,30.36,NNE,22,6.9,6.9,24,0.00,,CLR,14.51,VWS V14.01,2013-05-25 21:46:00,
2013-05-25 17:51:00,62.8,26.5,30.36,NNE,22,6.9,6.9,25,0.00,,CLR,14.51,VWS V14.01,2013-05-25 21:51:00,
2013-05-25 17:56:00,63.1,25.8,30.36,NNE,22,6.9,6.9,24,0.00,,CLR,14.51,VWS V14.01,2013-05-25 21:56:00,
2013-05-25 18:00:00,63.7,26.2,30.36,NNE,22,6.9,6.9,24,0.00,,CLR,14.51,VWS V14.01,2013-05-25 22:00:00,
2013-05-25 18:01:00,63.7,26.2,30.36,NNE,22,6.9,6.9,24,0.00,,CLR,14.51,VWS V14.01,2013-05-25 22:01:00,
2013-05-25 18:06:00,63.0,25.6,30.33,NNE,22,6.9,6.9,24,0.00,,CLR,14.51,VWS V14.01,2013-05-25 22:06:00,
2013-05-25 18:11:00,62.8,25.5,30.33,NNE,22,6.9,6.9,24,0.00,,CLR,14.51,VWS V14.01,2013-05-25 22:11:00,
2013-05-25 18:16:00,63.1,25.8,30.33,NNE,22,6.9,6.9,24,0.00,,CLR,14.51,VWS V14.01,2013-05-25 22:16:00,
2013-05-25 18:21:00,63.3,25.9,30.33,NNE,22,6.9,6.9,24,0.00,,CLR,14.51,VWS V14.01,2013-05-25 22:21:00,
2013-05-25 18:26:00,64.0,26.5,30.33,NNE,22,6.9,6.9,24,0.00,,CLR,14.51,VWS V14.01,2013-05-25 22:26:00,
2013-05-25 18:31:00,63.3,25.9,30.33,NNE,22,6.9,6.9,24,0.00,,CLR,14.51,VWS V14.01,2013-05-25 22:31:00,
2013-05-25 18:36:00,63.1,25.8,30.33,NNE,22,6.9,6.9,24,0.00,,CLR,14.51,VWS V14.01,2013-05-25 22:36:00,
2013-05-25 18:41:00,63.7,26.2,30.33,NNE,22,6.9,6.9,24,0.00,,CLR,14.51,VWS V14.01,2013-05-25 22:41:00,
2013-05-25 18:46:00,63.1,25.8,30.33,NNE,22,6.9,6.9,24,0.00,,CLR,14.51,VWS V14.01,2013-05-25 22:46:00,
2013-05-25 18:51:00,63.1,26.8,30.33,NNE,22,6.9,6.9,25,0.00,,CLR,14.51,VWS V14.01,2013-05-25 22:51:00,
2013-05-25 18:56:00,62.4,27.1,30.33,NNE,22,6.9,6.9,26,0.00,,CLR,14.51,VWS V14.01,2013-05-25 22:56:00,
2013-05-25 19:00:00,62.4,28.0,30.33,NNE,22,6.9,6.9,27,0.00,,CLR,14.51,VWS V14.01,2013-05-25 23:00:00,
2013-05-25 19:01:00,62.2,27.0,30.33,NNE,22,6.9,6.9,26,0.00,,CLR,14.51,VWS V14.01,2013-05-25 23:01:00,
2013-05-25 19:06:00,62.4,28.0,30.33,NNE,22,6.9,6.9,27,0.00,,CLR,14.51,VWS V14.01,2013-05-25 23:06:00,
2013-05-25 19:11:00,61.7,27.4,30.33,NNE,22,6.9,6.9,27,0.00,,CLR,14.51,VWS V14.01,2013-05-25 23:11:00,
2013-05-25 19:16:00,61.0,28.5,30.33,NNE,22,6.9,6.9,29,0.00,,CLR,14.51,VWS V14.01,2013-05-25 23:16:00,
2013-05-25 19:21:00,60.1,31.6,30.33,NNE,22,6.9,6.9,34,0.00,,CLR,14.51,VWS V14.01,2013-05-25 23:21:00,
2013-05-25 19:26:00,59.9,30.8,30.33,NNE,22,6.9,6.9,33,0.00,,CLR,14.51,VWS V14.01,2013-05-25 23:26:00,
2013-05-25 19:31:00,59.7,31.3,30.33,NNE,22,6.9,6.9,34,0.00,,CLR,14.51,VWS V14.01,2013-05-25 23:31:00,
2013-05-25 19:36:00,59.4,31.0,30.33,NNE,22,6.9,6.9,34,0.00,,CLR,14.51,VWS V14.01,2013-05-25 23:36:00,
2013-05-25 19:41:00,59.2,31.6,30.33,NNE,22,6.9,6.9,35,0.00,,CLR,14.51,VWS V14.01,2013-05-25 23:41:00,
2013-05-25 19:46:00,59.2,31.6,30.33,NNE,22,6.9,6.9,35,0.00,,CLR,14.51,VWS V14.01,2013-05-25 23:46:00,
2013-05-25 19:51:00,58.8,32.0,30.33,NNE,22,6.9,6.9,36,0.00,,CLR,14.51,VWS V14.01,2013-05-25 23:51:00,
2013-05-25 19:56:00,58.5,31.6,30.33,NNE,22,6.9,6.9,36,0.00,,CLR,14.51,VWS V14.01,2013-05-25 23:56:00,
2013-05-25 20:00:00,58.3,31.5,30.33,NNE,22,6.9,6.9,36,0.00,,CLR,14.51,VWS V14.01,2013-05-26 00:00:00,
2013-05-25 20:01:00,58.3,31.5,30.33,NNE,22,6.9,6.9,36,0.00,,CLR,14.51,VWS V14.01,2013-05-26 00:01:00,
2013-05-25 20:06:00,57.9,31.1,30.33,NNE,22,6.9,6.9,36,0.00,,CLR,14.51,VWS V14.01,2013-05-26 00:06:00,
2013-05-25 20:11:00,57.7,31.0,30.33,NNE,22,6.9,6.9,36,0.00,,CLR,14.51,VWS V14.01,2013-05-26 00:11:00,
2013-05-25 20:16:00,57.9,31.8,30.33,NNE,22,6.9,6.9,37,0.00,,CLR,14.51,VWS V14.01,2013-05-26 00:16:00,
2013-05-25 20:21:00,58.8,32.6,30.33,NNE,22,6.9,6.9,37,0.00,,CLR,14.51,VWS V14.01,2013-05-26 00:21:00,
2013-05-25 20:26:00,59.2,33.0,30.33,NNE,22,6.9,6.9,37,0.00,,CLR,14.51,VWS V14.01,2013-05-26 00:26:00,
2013-05-25 20:31:00,58.1,32.0,30.33,NNE,22,6.9,6.9,37,0.00,,CLR,14.51,VWS V14.01,2013-05-26 00:31:00,
2013-05-25 20:36:00,57.0,32.3,30.33,NNE,22,6.9,6.9,39,0.00,,CLR,14.51,VWS V14.01,2013-05-26 00:36:00,
2013-05-25 20:42:00,55.6,31.0,30.33,NNE,22,6.9,6.9,39,0.00,,CLR,14.51,VWS V14.01,2013-05-26 00:42:00,
2013-05-25 20:47:00,54.7,30.9,30.33,NNE,22,6.9,6.9,40,0.00,,CLR,14.51,VWS V14.01,2013-05-26 00:47:00,
2013-05-25 20:52:00,53.8,31.2,30.33,NNE,22,6.9,6.9,42,0.00,,CLR,14.51,VWS V14.01,2013-05-26 00:52:00,
2013-05-25 20:57:00,52.9,31.6,30.33,NNE,22,6.9,6.9,44,0.00,,CLR,14.51,VWS V14.01,2013-05-26 00:57:00,
2013-05-25 21:00:00,52.2,30.4,30.33,NNE,22,6.9,6.9,43,0.00,,CLR,14.51,VWS V14.01,2013-05-26 01:00:00,
2013-05-25 21:02:00,52.2,30.4,30.33,NNE,22,6.9,6.9,43,0.00,,CLR,14.51,VWS V14.01,2013-05-26 01:02:00,
2013-05-25 21:07:00,52.0,31.3,30.33,NNE,22,6.9,6.9,45,0.00,,CLR,14.51,VWS V14.01,2013-05-26 01:07:00,
2013-05-25 21:12:00,51.6,31.5,30.33,NNE,22,6.9,6.9,46,0.00,,CLR,14.51,VWS V14.01,2013-05-26 01:12:00,
2013-05-25 21:17:00,51.3,31.7,30.30,NNE,22,6.9,6.9,47,0.00,,CLR,14.51,VWS V14.01,2013-05-26 01:17:00,
2013-05-25 21:22:00,50.5,31.6,30.30,NNE,22,6.9,6.9,48,0.00,,CLR,14.51,VWS V14.01,2013-05-26 01:22:00,
2013-05-25 21:27:00,49.6,31.8,30.30,NNE,22,6.9,6.9,50,0.00,,CLR,14.51,VWS V14.01,2013-05-26 01:27:00,
2013-05-25 21:32:00,48.9,31.6,30.33,NNE,22,6.9,6.9,51,0.00,,CLR,14.51,VWS V14.01,2013-05-26 01:32:00,
2013-05-25 21:37:00,48.7,31.0,30.33,NNE,22,6.9,6.9,50,0.00,,CLR,14.51,VWS V14.01,2013-05-26 01:37:00,
2013-05-25 21:42:00,48.7,31.4,30.33,NNE,22,6.9,6.9,51,0.00,,CLR,14.51,VWS V14.01,2013-05-26 01:42:00,
2013-05-25 21:47:00,48.7,31.9,30.33,NNE,22,6.9,6.9,52,0.00,,CLR,14.51,VWS V14.01,2013-05-26 01:47:00,
2013-05-25 21:52:00,48.7,31.9,30.33,NNE,22,6.9,6.9,52,0.00,,CLR,14.51,VWS V14.01,2013-05-26 01:52:00,
2013-05-25 21:57:00,48.7,31.9,30.33,NNE,22,6.9,6.9,52,0.00,,CLR,14.51,VWS V14.01,2013-05-26 01:57:00,
2013-05-25 22:00:00,48.7,32.4,30.33,NNE,22,6.9,6.9,53,0.00,,CLR,14.51,VWS V14.01,2013-05-26 02:00:00,
2013-05-25 22:02:00,48.7,32.4,30.33,NNE,22,6.9,6.9,53,0.00,,CLR,14.51,VWS V14.01,2013-05-26 02:02:00,
2013-05-25 22:07:00,48.9,33.0,30.33,NNE,22,6.9,6.9,54,0.00,,CLR,14.51,VWS V14.01,2013-05-26 02:07:00,
2013-05-25 22:12:00,49.1,35.4,30.33,NNE,22,6.9,6.9,59,0.00,,CLR,14.51,VWS V14.01,2013-05-26 02:12:00,
2013-05-25 22:17:00,48.7,35.1,30.33,NNE,22,6.9,6.9,59,0.00,,CLR,14.51,VWS V14.01,2013-05-26 02:17:00,
2013-05-25 22:22:00,48.0,36.0,30.33,NNE,22,6.9,6.9,63,0.00,,CLR,14.51,VWS V14.01,2013-05-26 02:22:00,
2013-05-25 22:27:00,47.8,36.7,30.33,NNE,22,6.9,6.9,65,0.00,,CLR,14.51,VWS V14.01,2013-05-26 02:27:00,
2013-05-25 22:32:00,47.5,35.9,30.36,NNE,22,6.9,6.9,64,0.00,,CLR,14.51,VWS V14.01,2013-05-26 02:32:00,
2013-05-25 22:37:00,47.1,35.2,30.36,NNE,22,6.9,6.9,63,0.00,,CLR,14.51,VWS V14.01,2013-05-26 02:37:00,
2013-05-25 22:42:00,46.9,36.6,30.36,NNE,22,6.9,6.9,67,0.00,,CLR,14.51,VWS V14.01,2013-05-26 02:42:00,
2013-05-25 22:47:00,47.1,37.5,30.36,NNE,22,6.9,6.9,69,0.00,,CLR,14.51,VWS V14.01,2013-05-26 02:47:00,
2013-05-25 22:52:00,47.1,37.8,30.36,NNE,22,6.9,6.9,70,0.00,,CLR,14.51,VWS V14.01,2013-05-26 02:52:00,
2013-05-25 22:57:00,46.6,37.0,30.36,NNE,22,6.9,6.9,69,0.00,,CLR,14.51,VWS V14.01,2013-05-26 02:57:00,
2013-05-25 23:00:00,46.0,36.1,30.36,NNE,22,6.9,6.9,68,0.00,,CLR,14.51,VWS V14.01,2013-05-26 03:00:00,
2013-05-25 23:02:00,46.0,36.5,30.36,NNE,22,6.9,6.9,69,0.00,,CLR,14.51,VWS V14.01,2013-05-26 03:02:00,
2013-05-25 23:07:00,46.0,36.5,30.36,NNE,22,6.9,6.9,69,0.00,,CLR,14.51,VWS V14.01,2013-05-26 03:07:00,
2013-05-25 23:12:00,46.2,36.3,30.36,NNE,22,6.9,6.9,68,0.00,,CLR,14.51,VWS V14.01,2013-05-26 03:12:00,
2013-05-25 23:17:00,46.4,36.0,30.36,NNE,22,6.9,6.9,67,0.00,,CLR,14.51,VWS V14.01,2013-05-26 03:17:00,
2013-05-25 23:22:00,46.2,35.5,30.36,NNE,22,6.9,6.9,66,0.00,,CLR,14.51,VWS V14.01,2013-05-26 03:22:00,
2013-05-25 23:27:00,46.0,35.0,30.36,NNE,22,6.9,6.9,65,0.00,,CLR,14.51,VWS V14.01,2013-05-26 03:27:00,
2013-05-25 23:32:00,45.9,34.4,30.36,NNE,22,6.9,6.9,64,0.00,,CLR,14.51,VWS V14.01,2013-05-26 03:32:00,
2013-05-25 23:37:00,45.9,34.4,30.36,NNE,22,6.9,6.9,64,0.00,,CLR,14.51,VWS V14.01,2013-05-26 03:37:00,
2013-05-25 23:42:00,45.5,34.0,30.36,NNE,22,6.9,6.9,64,0.00,,CLR,14.51,VWS V14.01,2013-05-26 03:42:00,
2013-05-25 23:47:00,45.5,34.0,30.36,NNE,22,6.9,6.9,64,0.00,,CLR,14.51,VWS V14.01,2013-05-26 03:47:00,
2013-05-25 23:52:00,45.1,33.7,30.36,NNE,22,6.9,6.9,64,0.00,,CLR,14.51,VWS V14.01,2013-05-26 03:52:00,
2013-05-25 23:57:00,44.8,33.4,30.36,NNE,22,6.9,6.9,64,0.00,,CLR,14.51,VWS V14.01,2013-05-26 03:57:00,